createdAt,value
2022-10-09T00:02:02.848Z,27.53
2022-10-09T00:05:05.663Z,28.13
2022-10-09T00:08:07.832Z,28.33
2022-10-09T00:11:16.120Z,26.45
2022-10-09T00:14:18.927Z,26.60
2022-10-09T00:17:21.920Z,29.63
2022-10-09T00:20:25.116Z,30.80
2022-10-09T00:23:28.715Z,31.90
2022-10-09T00:26:32.633Z,30.40
2022-10-09T00:29:35.644Z,31.80
2022-10-09T00:32:38.512Z,31.67
2022-10-09T00:35:41.605Z,30.38
2022-10-09T00:38:43.806Z,31.60
2022-10-09T00:41:45.978Z,30.60
2022-10-09T00:44:51.584Z,31.50
2022-10-09T00:47:57.087Z,32.30
2022-10-09T00:51:00.200Z,32.60
2022-10-09T00:54:04.664Z,32.95
2022-10-09T00:57:07.506Z,33.35
2022-10-09T01:00:13.719Z,32.47
2022-10-09T01:03:15.871Z,32.00
2022-10-09T01:06:31.073Z,32.50
2022-10-09T01:09:41.183Z,32.00
2022-10-09T01:12:49.049Z,31.30
2022-10-09T01:16:31.641Z,29.67
2022-10-09T01:19:56.033Z,30.10
2022-10-09T01:23:25.649Z,29.85
2022-10-09T01:26:46.868Z,27.02
2022-10-09T01:29:54.271Z,25.88
2022-10-09T01:32:58.169Z,27.30
2022-10-09T01:36:02.393Z,25.57
2022-10-09T01:39:07.434Z,25.15
2022-10-09T01:42:12.672Z,25.35
2022-10-09T01:45:16.895Z,24.27
2022-10-09T01:48:25.527Z,27.07
2022-10-09T01:51:31.577Z,24.83
2022-10-09T01:54:59.251Z,26.77
2022-10-09T01:58:05.006Z,27.40
2022-10-09T02:01:12.752Z,26.92
2022-10-09T02:04:17.440Z,27.43
2022-10-09T02:07:20.937Z,25.17
2022-10-09T02:10:24.757Z,26.90
2022-10-09T02:13:28.259Z,27.48
2022-10-09T02:16:42.926Z,26.58
2022-10-09T02:19:51.648Z,27.73
2022-10-09T02:22:54.779Z,24.63
2022-10-09T02:25:57.045Z,24.88
2022-10-09T02:28:59.344Z,24.58
2022-10-09T02:32:01.618Z,24.00
2022-10-09T02:35:03.974Z,23.00
2022-10-09T02:38:06.201Z,23.70
2022-10-09T02:41:08.308Z,22.52
2022-10-09T02:44:10.537Z,22.58
2022-10-09T02:47:12.701Z,21.50
2022-10-09T02:50:15.335Z,22.73
2022-10-09T02:53:18.326Z,23.23
2022-10-09T02:56:22.745Z,23.23
2022-10-09T02:59:25.844Z,22.42
2022-10-09T03:02:29.025Z,21.73
2022-10-09T03:05:32.033Z,21.90
2022-10-09T03:08:35.625Z,22.83
2022-10-09T03:11:38.626Z,24.05
2022-10-09T03:14:41.613Z,23.27
2022-10-09T03:17:44.806Z,24.50
2022-10-09T03:20:47.999Z,24.03
2022-10-09T03:23:51.401Z,24.57
2022-10-09T03:26:54.596Z,23.00
2022-10-09T03:29:59.031Z,22.92
2022-10-09T03:33:02.017Z,26.58
2022-10-09T03:36:05.622Z,25.97
2022-10-09T03:39:09.445Z,24.93
2022-10-09T03:42:12.524Z,26.55
2022-10-09T03:45:15.714Z,26.05
2022-10-09T03:48:18.917Z,25.83
2022-10-09T03:51:21.893Z,25.67
2022-10-09T03:54:24.793Z,27.50
2022-10-09T03:57:27.580Z,26.60
2022-10-09T04:00:30.129Z,26.15
2022-10-09T04:03:32.606Z,27.35
2022-10-09T04:06:34.744Z,28.73
2022-10-09T04:09:36.903Z,28.07
2022-10-09T04:12:39.068Z,29.70
2022-10-09T04:15:49.857Z,30.45
2022-10-09T04:18:51.966Z,31.85
2022-10-09T04:21:56.135Z,33.60
2022-10-09T04:24:59.323Z,30.60
2022-10-09T04:28:01.587Z,30.95
2022-10-09T04:31:04.317Z,31.80
2022-10-09T04:34:06.541Z,32.75
2022-10-09T04:37:08.654Z,30.30
2022-10-09T04:40:11.078Z,28.00
2022-10-09T04:43:13.173Z,28.73
2022-10-09T04:46:15.433Z,30.73
2022-10-09T04:49:17.889Z,30.35
2022-10-09T04:52:20.026Z,30.70
2022-10-09T04:55:22.175Z,30.97
2022-10-09T04:58:25.552Z,30.17
2022-10-09T05:01:35.555Z,28.88
2022-10-09T05:04:40.953Z,27.85
2022-10-09T05:07:43.857Z,26.93
2022-10-09T05:10:46.728Z,28.67
2022-10-09T05:13:52.587Z,29.58
2022-10-09T05:17:12.958Z,28.58
2022-10-09T05:20:17.306Z,29.08
2022-10-09T05:23:20.294Z,28.20
2022-10-09T05:26:24.208Z,29.67
2022-10-09T05:29:27.094Z,30.35
2022-10-09T05:32:30.188Z,29.95
2022-10-09T05:35:32.572Z,31.70
2022-10-09T05:38:34.975Z,32.77
2022-10-09T05:41:37.089Z,30.63
2022-10-09T05:44:39.169Z,28.95
2022-10-09T05:47:41.362Z,28.60
2022-10-09T05:50:43.507Z,29.50
2022-10-09T05:53:46.792Z,29.40
2022-10-09T05:56:48.960Z,28.70
2022-10-09T05:59:51.088Z,28.45
2022-10-09T06:02:53.492Z,28.92
2022-10-09T06:06:06.574Z,29.23
2022-10-09T06:09:10.582Z,28.87
2022-10-09T06:12:14.354Z,30.13
2022-10-09T06:15:18.696Z,34.10
2022-10-09T06:18:21.187Z,35.90
2022-10-09T06:21:23.917Z,28.77
2022-10-09T06:24:28.995Z,29.73
2022-10-09T06:27:31.431Z,23.83
2022-10-09T06:30:38.394Z,24.15
2022-10-09T06:33:42.198Z,21.23
2022-10-09T06:36:44.407Z,21.20
2022-10-09T06:39:47.211Z,20.83
2022-10-09T06:42:49.770Z,20.87
2022-10-09T06:45:52.868Z,19.80
2022-10-09T06:48:55.031Z,19.15
2022-10-09T06:51:57.148Z,18.70
2022-10-09T06:54:59.252Z,18.60
2022-10-09T06:58:01.430Z,17.13
2022-10-09T07:01:24.557Z,17.13
2022-10-09T07:04:27.025Z,17.73
2022-10-09T07:07:29.167Z,17.35
2022-10-09T07:10:31.277Z,16.80
2022-10-09T07:13:33.442Z,16.37
2022-10-09T07:16:38.665Z,15.80
2022-10-09T07:19:40.904Z,15.15
2022-10-09T07:22:43.001Z,14.35
2022-10-09T07:25:45.106Z,14.00
2022-10-09T07:28:48.141Z,13.40
2022-10-09T07:31:50.333Z,13.15
2022-10-09T07:34:52.493Z,11.02
2022-10-09T07:37:54.646Z,10.25
2022-10-09T07:41:09.845Z,9.93
2022-10-09T07:44:12.236Z,9.33
2022-10-09T07:47:14.395Z,8.85
2022-10-09T07:50:16.672Z,9.10
2022-10-09T07:53:18.802Z,8.10
2022-10-09T07:56:23.588Z,8.20
2022-10-09T07:59:25.670Z,7.80
2022-10-09T08:02:27.867Z,7.43
2022-10-09T08:05:30.377Z,7.70
2022-10-09T08:08:33.026Z,6.80
2022-10-09T08:11:35.384Z,7.13
2022-10-09T08:14:37.548Z,6.87
2022-10-09T08:17:39.895Z,6.78
2022-10-09T08:20:42.071Z,6.80
2022-10-09T08:23:44.415Z,7.30
2022-10-09T08:26:46.569Z,7.10
2022-10-09T08:29:48.727Z,7.07
2022-10-09T08:32:51.429Z,6.85
2022-10-09T08:35:54.433Z,7.35
2022-10-09T08:38:56.740Z,7.20
2022-10-09T08:42:01.639Z,6.40
2022-10-09T08:45:04.166Z,7.37
2022-10-09T08:48:13.866Z,6.97
2022-10-09T08:51:22.264Z,6.60
2022-10-09T08:54:35.745Z,6.40
2022-10-09T08:57:39.302Z,6.07
2022-10-09T09:00:55.527Z,7.13
2022-10-09T09:04:09.774Z,6.57
2022-10-09T09:07:23.990Z,6.30
2022-10-09T09:10:38.225Z,6.30
2022-10-09T09:14:18.149Z,6.37
2022-10-09T09:17:45.302Z,6.63
2022-10-09T09:20:55.741Z,6.57
2022-10-09T09:23:58.880Z,6.35
2022-10-09T09:27:04.118Z,6.47
2022-10-09T09:30:12.246Z,6.77
2022-10-09T09:33:19.904Z,6.40
2022-10-09T09:36:28.678Z,6.43
2022-10-09T09:42:57.052Z,6.40
2022-10-09T09:46:00.481Z,6.23
2022-10-09T09:49:07.056Z,5.90
2022-10-09T09:52:11.582Z,6.53
2022-10-09T09:55:25.209Z,6.20
2022-10-09T09:58:34.103Z,6.25
2022-10-09T10:01:36.343Z,6.40
2022-10-09T10:04:54.152Z,6.60
2022-10-09T10:07:57.695Z,6.20
2022-10-09T10:11:07.372Z,6.05
2022-10-09T10:14:13.537Z,7.20
2022-10-09T10:17:25.612Z,6.23
2022-10-09T10:20:29.738Z,6.07
2022-10-09T10:23:42.417Z,5.95
2022-10-09T10:26:58.155Z,6.60
2022-10-09T10:30:03.460Z,6.60
2022-10-09T10:33:19.787Z,6.50
2022-10-09T10:36:22.584Z,6.93
2022-10-09T10:39:32.179Z,7.00
2022-10-09T10:42:43.510Z,6.47
2022-10-09T10:46:18.519Z,6.40
2022-10-09T10:49:23.065Z,6.70
2022-10-09T10:52:41.013Z,6.70
2022-10-09T10:55:54.044Z,6.90
2022-10-09T10:59:12.589Z,6.75
2022-10-09T11:02:32.028Z,6.85
2022-10-09T11:05:59.223Z,6.77
2022-10-09T11:09:20.192Z,6.60
2022-10-09T11:12:47.407Z,6.97
2022-10-09T11:16:15.906Z,6.70
2022-10-09T11:19:45.952Z,5.88
2022-10-09T11:23:03.251Z,5.43
2022-10-09T11:26:24.239Z,5.80
2022-10-09T11:29:52.094Z,7.35
2022-10-09T11:33:30.806Z,7.60
2022-10-09T11:36:41.936Z,7.88
2022-10-09T11:39:44.428Z,7.50
2022-10-09T11:42:53.748Z,6.70
2022-10-09T11:46:09.659Z,7.72
2022-10-09T11:49:23.465Z,7.55
2022-10-09T11:52:45.830Z,7.63
2022-10-09T11:55:48.741Z,8.20
2022-10-09T11:59:04.552Z,7.80
2022-10-09T12:02:15.713Z,7.88
2022-10-09T12:05:19.138Z,7.70
2022-10-09T12:08:28.144Z,8.10
2022-10-09T12:11:32.474Z,7.90
2022-10-09T12:14:37.516Z,7.47
2022-10-09T12:17:50.373Z,7.68
2022-10-09T12:20:53.677Z,7.15
2022-10-09T12:23:55.971Z,6.82
2022-10-09T12:27:03.196Z,7.20
2022-10-09T12:30:18.261Z,7.27
2022-10-09T12:33:28.157Z,7.55
2022-10-09T12:36:31.468Z,6.70
2022-10-09T12:39:33.910Z,7.43
2022-10-09T12:42:36.353Z,6.60
2022-10-09T12:45:43.334Z,6.73
2022-10-09T12:48:46.275Z,7.05
2022-10-09T12:51:57.187Z,6.90
2022-10-09T12:55:01.298Z,6.90
2022-10-09T12:58:06.168Z,6.40
2022-10-09T13:01:13.614Z,7.10
2022-10-09T13:04:42.995Z,7.00
2022-10-09T13:07:52.440Z,6.55
2022-10-09T13:10:56.039Z,6.97
2022-10-09T13:13:58.750Z,6.53
2022-10-09T13:17:01.991Z,7.27
2022-10-09T13:20:24.689Z,6.78
2022-10-09T13:23:30.174Z,7.20
2022-10-09T13:26:32.345Z,7.47
2022-10-09T13:29:34.536Z,6.40
2022-10-09T13:32:36.740Z,6.70
2022-10-09T13:35:38.875Z,6.30
2022-10-09T13:38:41.181Z,6.65
2022-10-09T13:41:44.793Z,7.03
2022-10-09T13:44:47.026Z,6.63
2022-10-09T13:47:49.287Z,6.17
2022-10-09T13:50:52.091Z,6.40
2022-10-09T13:53:54.685Z,6.45
2022-10-09T13:56:56.851Z,6.50
2022-10-09T14:00:02.212Z,6.47
2022-10-09T14:03:14.248Z,6.47
2022-10-09T14:06:16.384Z,6.32
2022-10-09T14:09:18.520Z,5.90
2022-10-09T14:12:20.695Z,6.40
2022-10-09T14:15:22.832Z,6.53
2022-10-09T14:18:25.159Z,6.60
2022-10-09T14:21:27.761Z,6.38
2022-10-09T14:24:29.970Z,6.07
2022-10-09T14:27:32.166Z,6.28
2022-10-09T14:30:34.353Z,6.47
2022-10-09T14:33:36.477Z,6.50
2022-10-09T14:36:39.778Z,6.57
2022-10-09T14:39:43.803Z,6.85
2022-10-09T14:42:46.179Z,6.30
2022-10-09T14:45:48.394Z,6.70
2022-10-09T14:48:51.360Z,6.43
2022-10-09T14:51:54.340Z,6.30
2022-10-09T14:54:56.569Z,6.63
2022-10-09T14:57:58.711Z,6.50
2022-10-09T15:01:01.306Z,6.97
2022-10-09T15:04:04.813Z,6.57
2022-10-09T15:07:06.977Z,7.07
2022-10-09T15:10:09.364Z,6.80
2022-10-09T15:13:11.567Z,6.85
2022-10-09T15:16:15.509Z,7.07
2022-10-09T15:19:17.658Z,6.70
2022-10-09T15:22:19.864Z,6.50
2022-10-09T15:25:22.634Z,6.63
2022-10-09T15:28:25.552Z,8.13
2022-10-09T15:31:33.813Z,9.60
2022-10-09T15:34:40.102Z,10.53
2022-10-09T15:40:51.912Z,7.68
2022-10-09T15:44:01.446Z,7.95
2022-10-09T15:47:03.658Z,6.40
2022-10-09T15:50:06.550Z,5.83
2022-10-09T15:53:14.372Z,5.20
2022-10-09T15:56:19.133Z,5.00
2022-10-09T15:59:21.495Z,5.15
2022-10-09T16:02:23.627Z,4.77
2022-10-09T16:05:25.780Z,4.93
2022-10-09T16:08:28.675Z,4.95
2022-10-09T16:11:31.511Z,4.75
2022-10-09T16:14:33.647Z,5.07
2022-10-09T16:17:35.784Z,5.57
2022-10-09T16:20:38.587Z,5.87
2022-10-09T16:23:41.799Z,5.35
2022-10-09T16:26:44.235Z,4.90
2022-10-09T16:29:48.549Z,5.00
2022-10-09T16:32:51.689Z,4.50
2022-10-09T16:35:54.148Z,4.60
2022-10-09T16:38:57.330Z,3.67
2022-10-09T16:42:03.790Z,4.60
2022-10-09T16:45:06.597Z,4.13
2022-10-09T16:48:08.970Z,3.37
2022-10-09T16:51:13.367Z,3.40
2022-10-09T16:54:16.461Z,3.45
2022-10-09T16:57:19.453Z,3.50
2022-10-09T17:00:21.910Z,3.25
2022-10-09T17:03:24.438Z,3.60
2022-10-09T17:06:27.673Z,3.53
2022-10-09T17:09:30.615Z,3.83
2022-10-09T17:12:32.886Z,4.13
2022-10-09T17:15:35.008Z,4.20
2022-10-09T17:18:38.656Z,4.30
2022-10-09T17:21:43.117Z,4.10
2022-10-09T17:24:45.960Z,7.53
2022-10-09T17:27:48.042Z,7.60
2022-10-09T17:30:50.244Z,8.93
2022-10-09T17:33:57.711Z,4.60
2022-10-09T17:37:00.139Z,5.43
2022-10-09T17:40:02.394Z,4.40
2022-10-09T17:43:05.521Z,4.30
2022-10-09T17:46:07.799Z,5.00
2022-10-09T17:49:10.676Z,4.60
2022-10-09T17:52:12.926Z,4.47
2022-10-09T17:55:15.196Z,4.53
2022-10-09T17:58:18.558Z,3.90
2022-10-09T18:01:21.250Z,3.28
2022-10-09T18:04:23.635Z,4.33
2022-10-09T18:07:26.018Z,3.70
2022-10-09T18:10:28.308Z,3.40
2022-10-09T18:13:31.009Z,3.80
2022-10-09T18:16:37.271Z,4.75
2022-10-09T18:19:39.474Z,4.83
2022-10-09T18:22:41.615Z,6.00
2022-10-09T18:25:44.867Z,5.47
2022-10-09T18:28:48.619Z,6.22
2022-10-09T18:31:55.919Z,6.40
2022-10-09T18:34:58.296Z,5.70
2022-10-09T18:38:00.940Z,4.50
2022-10-09T18:41:04.431Z,5.60
2022-10-09T18:44:10.193Z,5.78
2022-10-09T18:47:17.212Z,5.90
2022-10-09T18:50:20.058Z,6.20
2022-10-09T18:53:22.784Z,6.60
2022-10-09T18:56:25.451Z,6.35
2022-10-09T18:59:30.365Z,6.57
2022-10-09T19:02:32.917Z,6.40
2022-10-09T19:05:35.292Z,5.73
2022-10-09T19:08:40.608Z,5.70
2022-10-09T19:11:43.282Z,5.28
2022-10-09T19:14:46.469Z,4.75
2022-10-09T19:17:49.126Z,5.22
2022-10-09T19:20:52.113Z,5.10
2022-10-09T19:23:54.851Z,4.13
2022-10-09T19:26:57.335Z,3.58
2022-10-09T19:29:59.687Z,3.47
2022-10-09T19:33:02.881Z,3.58
2022-10-09T19:36:07.412Z,2.37
2022-10-09T19:39:10.041Z,2.60
2022-10-09T19:42:12.227Z,2.60
2022-10-09T19:45:14.494Z,2.60
2022-10-09T19:48:18.534Z,2.50
2022-10-09T19:51:23.926Z,2.47
2022-10-09T19:54:26.515Z,2.27
2022-10-09T19:57:30.135Z,2.63
2022-10-09T20:00:32.530Z,2.40
2022-10-09T20:03:34.682Z,2.30
2022-10-09T20:06:41.166Z,2.07
2022-10-09T20:09:43.476Z,2.27
2022-10-09T20:12:45.623Z,2.58
2022-10-09T20:15:47.774Z,2.08
2022-10-09T20:18:49.887Z,1.90
2022-10-09T20:21:52.068Z,2.10
2022-10-09T20:24:54.227Z,2.17
2022-10-09T20:27:56.385Z,2.28
2022-10-09T20:30:59.772Z,2.28
2022-10-09T20:34:01.920Z,2.50
2022-10-09T20:37:04.187Z,2.27
2022-10-09T20:40:06.953Z,2.43
2022-10-09T20:43:09.129Z,2.00
2022-10-09T20:46:14.741Z,2.00
2022-10-09T20:49:16.910Z,1.98
2022-10-09T20:52:19.171Z,2.00
2022-10-09T20:55:21.295Z,2.50
2022-10-09T20:58:23.437Z,2.67
2022-10-09T21:01:27.921Z,2.20
2022-10-09T21:04:31.535Z,2.22
2022-10-09T21:07:33.718Z,1.97
2022-10-09T21:10:43.233Z,2.10
2022-10-09T21:13:45.885Z,2.10
2022-10-09T21:16:48.084Z,1.83
2022-10-09T21:19:50.649Z,2.30
2022-10-09T21:22:52.984Z,1.90
2022-10-09T21:25:55.305Z,1.80
2022-10-09T21:28:59.894Z,1.85
2022-10-09T21:32:02.326Z,1.50
2022-10-09T21:35:04.764Z,1.90
2022-10-09T21:38:06.937Z,1.70
2022-10-09T21:41:09.125Z,1.90
2022-10-09T21:44:11.305Z,1.65
2022-10-09T21:47:17.899Z,1.88
2022-10-09T21:50:20.019Z,2.00
2022-10-09T21:53:22.133Z,1.57
2022-10-09T21:56:24.363Z,1.90
2022-10-09T21:59:26.639Z,2.35
2022-10-09T22:02:28.835Z,2.28
2022-10-09T22:05:30.999Z,2.03
2022-10-09T22:08:33.788Z,1.83
2022-10-09T22:11:35.974Z,1.70
2022-10-09T22:14:38.134Z,2.20
2022-10-09T22:17:40.293Z,2.17
2022-10-09T22:20:45.689Z,1.83
2022-10-09T22:23:47.821Z,2.10
2022-10-09T22:26:49.934Z,1.80
2022-10-09T22:29:52.122Z,1.67
2022-10-09T22:32:54.479Z,1.80
2022-10-09T22:36:04.933Z,2.45
2022-10-09T22:39:07.244Z,1.70
2022-10-09T22:42:09.353Z,1.33
2022-10-09T22:45:11.576Z,1.40
2022-10-09T22:48:13.885Z,1.60
2022-10-09T22:51:17.096Z,1.50
2022-10-09T22:54:19.312Z,1.70
2022-10-09T22:57:21.426Z,1.67
2022-10-09T23:00:23.541Z,1.50
2022-10-09T23:03:25.634Z,1.40
2022-10-09T23:06:27.876Z,1.40
2022-10-09T23:09:31.741Z,1.63
2022-10-09T23:12:33.843Z,1.47
2022-10-09T23:15:37.105Z,1.50
2022-10-09T23:18:39.908Z,1.58
2022-10-09T23:21:43.820Z,1.33
2022-10-09T23:24:45.974Z,1.40
2022-10-09T23:27:48.076Z,1.43
2022-10-09T23:30:50.185Z,1.42
2022-10-09T23:33:52.372Z,1.63
2022-10-09T23:36:54.463Z,1.38
2022-10-09T23:39:56.643Z,1.50
2022-10-09T23:42:58.811Z,1.70
2022-10-09T23:46:03.058Z,1.60
2022-10-09T23:49:05.982Z,1.50
2022-10-09T23:52:08.361Z,1.65
2022-10-09T23:55:10.534Z,1.50
2022-10-09T23:58:17.158Z,1.47
